Time;durP1;ratioP1;P1;durP2;ratioP2;P2;SDS_P1;SDS_P2;PMS_P1;PMS_P2;Temp;Humidity;BMP_temperature;BMP_pressure;BME280_temperature;BME280_humidity;BME280_pressure;Samples;Min_cycle;Max_cycle;Signal;HPM_P1;HPM_P2
2021/12/16 00:04:20;;;;;;;1.45;1.40;;;5.60;99.90;;;;;;5115966;28;20058;-87
2021/12/16 00:09:29;;;;;;;3.50;1.67;;;5.70;99.90;;;;;;5115768;28;20064;-87
2021/12/16 00:29:03;;;;;;;2.22;1.60;;;5.90;99.90;;;;;;5115643;28;20039;-87
2021/12/16 00:34:01;;;;;;;1.58;1.20;;;5.90;99.90;;;;;;5115448;28;20476;-86
2021/12/16 00:36:32;;;;;;;1.48;1.33;;;6.00;99.90;;;;;;5097527;28;20047;-86
2021/12/16 00:39:06;;;;;;;1.35;1.23;;;6.00;99.90;;;;;;5097268;28;20044;-86
2021/12/16 00:41:34;;;;;;;1.38;1.27;;;6.00;99.90;;;;;;5097006;28;20138;-86
2021/12/16 00:54:45;;;;;;;2.00;1.80;;;6.00;99.90;;;;;;5114763;28;20044;-86
2021/12/16 00:57:15;;;;;;;2.75;1.40;;;6.00;99.90;;;;;;5099128;28;20058;-86
2021/12/16 00:59:46;;;;;;;1.50;1.40;;;6.00;99.90;;;;;;5100516;28;20069;-87
2021/12/16 01:02:38;;;;;;;1.42;1.33;;;6.00;99.90;;;;;;5114779;28;20596;-86
2021/12/16 01:05:47;;;;;;;1.38;1.23;;;6.10;99.90;;;;;;5097514;28;20047;-86
2021/12/16 01:35:49;;;;;;;1.63;1.50;;;6.00;99.90;;;;;;5114086;28;20054;-86
2021/12/16 01:46:37;;;;;;;3.55;1.70;;;5.80;99.90;;;;;;5113910;28;20479;-86
2021/12/16 01:49:23;;;;;;;2.35;1.35;;;5.80;99.90;;;;;;5095815;28;20058;-86
2021/12/16 01:57:23;;;;;;;1.40;1.30;;;5.90;99.90;;;;;;5113859;28;20304;-87
2021/12/16 02:00:02;;;;;;;2.20;1.40;;;5.80;99.90;;;;;;5096034;28;20052;-87
2021/12/16 02:10:35;;;;;;;1.83;1.60;;;5.90;99.90;;;;;;5113574;28;20050;-86
2021/12/16 02:32:53;;;;;;;4.05;2.60;;;5.70;99.90;;;;;;5113279;28;20146;-86
2021/12/16 02:35:30;;;;;;;2.42;2.30;;;5.80;99.90;;;;;;5095950;28;20051;-86
2021/12/16 02:38:00;;;;;;;2.78;2.58;;;5.80;99.90;;;;;;5096717;28;20043;-87
2021/12/16 02:40:27;;;;;;;2.50;2.30;;;5.80;99.90;;;;;;5099418;28;20328;-86
2021/12/16 02:43:05;;;;;;;2.15;2.05;;;5.80;99.90;;;;;;5117404;28;20047;-86
2021/12/16 02:48:38;;;;;;;2.10;1.90;;;5.90;99.90;;;;;;5117578;28;20079;-87
2021/12/16 02:51:11;;;;;;;1.92;1.83;;;5.90;99.90;;;;;;5099286;28;20052;-86
2021/12/16 02:53:47;;;;;;;1.80;1.70;;;5.90;99.90;;;;;;5117374;28;20506;-87
2021/12/16 02:56:15;;;;;;;3.20;1.33;;;5.90;99.90;;;;;;5099429;28;20049;-86
2021/12/16 02:58:45;;;;;;;1.45;1.35;;;5.90;99.90;;;;;;5117006;28;20055;-87
2021/12/16 03:01:17;;;;;;;2.10;1.90;;;5.90;99.90;;;;;;5099335;28;20414;-86
2021/12/16 03:03:44;;;;;;;1.73;1.60;;;5.90;99.90;;;;;;5117053;28;20048;-87
2021/12/16 03:06:11;;;;;;;2.42;1.80;;;5.90;99.90;;;;;;5099348;28;20047;-86
2021/12/16 03:08:40;;;;;;;2.10;1.90;;;5.80;99.90;;;;;;5099358;28;20043;-87
2021/12/16 03:11:41;;;;;;;2.13;1.92;;;5.90;99.90;;;;;;5098995;28;20048;-87
2021/12/16 03:19:16;;;;;;;2.92;1.77;;;5.90;99.90;;;;;;5116831;28;20134;-86
2021/12/16 03:21:48;;;;;;;2.75;1.95;;;5.80;99.90;;;;;;5099348;28;20050;-86
2021/12/16 03:37:46;;;;;;;2.03;1.83;;;5.70;99.90;;;;;;5116863;28;20058;-87
2021/12/16 03:40:14;;;;;;;2.53;1.88;;;5.70;99.90;;;;;;5098869;28;20044;-87
2021/12/16 03:42:50;;;;;;;2.85;1.98;;;5.70;99.90;;;;;;5098541;28;20487;-86
2021/12/16 03:48:19;;;;;;;4.03;2.47;;;5.50;99.90;;;;;;5116543;28;20134;-86
2021/12/16 03:50:46;;;;;;;3.67;2.40;;;5.50;99.90;;;;;;5115340;28;20134;-86
2021/12/16 03:53:16;;;;;;;2.55;2.42;;;5.50;99.90;;;;;;5098561;28;20125;-86
2021/12/16 03:55:45;;;;;;;2.60;2.40;;;5.50;99.90;;;;;;5098611;28;20051;-86
2021/12/16 03:58:13;;;;;;;2.47;2.00;;;5.50;99.90;;;;;;5098659;28;20488;-87
2021/12/16 04:00:47;;;;;;;2.45;2.22;;;5.60;99.90;;;;;;5098186;28;20056;-87
2021/12/16 04:03:14;;;;;;;2.50;2.30;;;5.70;99.90;;;;;;5098699;28;20059;-86
2021/12/16 04:05:42;;;;;;;2.80;2.60;;;5.70;99.90;;;;;;5098418;28;20054;-86
2021/12/16 04:08:10;;;;;;;2.42;2.22;;;5.60;99.90;;;;;;5098403;28;20085;-86
2021/12/16 04:10:54;;;;;;;3.40;2.63;;;5.60;99.90;;;;;;5097884;28;20040;-86
2021/12/16 04:13:20;;;;;;;;;;;5.60;99.90;;;;;;5098313;28;20138;-86
2021/12/16 04:15:47;;;;;;;4.88;2.20;;;5.60;99.90;;;;;;5098217;28;20006;-87
2021/12/16 04:18:14;;;;;;;4.50;2.55;;;5.50;99.90;;;;;;5116026;28;20130;-86
2021/12/16 04:20:41;;;;;;;3.75;2.53;;;5.60;99.90;;;;;;5097702;28;20135;-86
2021/12/16 04:23:10;;;;;;;3.13;2.70;;;5.50;99.90;;;;;;5097710;28;20040;-87
2021/12/16 04:25:40;;;;;;;4.20;2.72;;;5.60;99.90;;;;;;5098005;28;20059;-87
2021/12/16 04:28:13;;;;;;;2.70;2.50;;;5.60;99.90;;;;;;5097906;28;20050;-86
2021/12/16 04:30:41;;;;;;;3.53;2.10;;;5.50;99.90;;;;;;5115504;28;20063;-86
2021/12/16 04:33:09;;;;;;;1.98;1.80;;;5.50;99.90;;;;;;5115114;28;20051;-87
2021/12/16 04:35:36;;;;;;;2.15;1.95;;;5.50;99.90;;;;;;5097853;28;20048;-87
2021/12/16 04:38:05;;;;;;;2.53;2.33;;;5.60;99.90;;;;;;5097573;28;20484;-87
2021/12/16 04:40:35;;;;;;;2.65;1.98;;;5.60;99.90;;;;;;5115486;28;20142;-87
2021/12/16 04:43:05;;;;;;;2.95;2.00;;;5.70;99.90;;;;;;5098480;28;20051;-87
2021/12/16 04:45:33;;;;;;;3.00;2.40;;;5.70;99.90;;;;;;5100321;28;20040;-87
2021/12/16 04:48:02;;;;;;;4.07;2.97;;;5.80;99.90;;;;;;5097548;28;20043;-86
2021/12/16 04:50:28;;;;;;;2.40;2.20;;;5.80;99.90;;;;;;5115155;28;20049;-86
2021/12/16 04:52:55;;;;;;;3.17;2.05;;;5.70;99.90;;;;;;5115002;28;20135;-86
2021/12/16 04:55:23;;;;;;;4.07;2.38;;;5.70;99.90;;;;;;5114934;28;20040;-86
2021/12/16 04:57:51;;;;;;;4.20;1.98;;;5.60;99.90;;;;;;5097112;28;20047;-87
2021/12/16 05:00:21;;;;;;;2.28;1.75;;;5.60;99.90;;;;;;5114577;28;20075;-87
2021/12/16 05:02:48;;;;;;;3.42;1.92;;;5.60;99.90;;;;;;5097171;28;20047;-87
2021/12/16 05:05:16;;;;;;;4.32;2.25;;;5.70;99.90;;;;;;5096735;28;20043;-86
2021/12/16 05:07:44;;;;;;;2.03;1.83;;;5.70;99.90;;;;;;5114860;28;20043;-87
2021/12/16 05:10:13;;;;;;;4.30;2.25;;;5.80;99.90;;;;;;5096965;28;20054;-87
2021/12/16 05:12:48;;;;;;;2.45;2.10;;;5.80;99.90;;;;;;5096344;28;20467;-87
2021/12/16 05:15:22;;;;;;;3.78;1.98;;;5.80;99.90;;;;;;5096692;28;20433;-86
2021/12/16 05:17:52;;;;;;;2.83;2.35;;;5.70;99.90;;;;;;5096694;28;20047;-87
2021/12/16 05:20:27;;;;;;;3.10;2.05;;;5.70;99.90;;;;;;5096875;28;20079;-86
2021/12/16 05:28:18;;;;;;;2.00;1.90;;;5.50;99.90;;;;;;5114319;28;20040;-87
2021/12/16 05:30:45;;;;;;;3.28;2.20;;;5.60;99.90;;;;;;5096347;28;20064;-87
2021/12/16 05:33:14;;;;;;;2.63;2.42;;;5.70;99.90;;;;;;5096207;28;20047;-87
2021/12/16 05:35:43;;;;;;;2.58;2.38;;;5.70;99.90;;;;;;5113973;28;20057;-86
2021/12/16 05:38:11;;;;;;;2.53;2.35;;;5.70;99.90;;;;;;5096381;28;20142;-87
2021/12/16 05:40:38;;;;;;;2.42;2.03;;;5.70;99.90;;;;;;5113819;28;20171;-87
2021/12/16 05:43:08;;;;;;;2.03;1.92;;;5.80;99.90;;;;;;5096113;28;20065;-87
2021/12/16 05:45:36;;;;;;;2.17;2.00;;;5.80;99.90;;;;;;5113895;28;20050;-87
2021/12/16 05:48:07;;;;;;;2.90;2.40;;;5.70;99.90;;;;;;5096084;28;20112;-86
2021/12/16 05:50:37;;;;;;;2.03;1.92;;;5.70;99.90;;;;;;5113862;28;20039;-87
2021/12/16 05:53:05;;;;;;;1.90;1.80;;;5.80;99.90;;;;;;5095927;28;20053;-87
2021/12/16 05:55:32;;;;;;;1.88;1.77;;;5.80;99.90;;;;;;5114095;28;20050;-87
2021/12/16 05:58:02;;;;;;;5.45;1.90;;;5.80;99.90;;;;;;5114457;28;20126;-87
2021/12/16 06:00:33;;;;;;;2.28;2.05;;;5.80;99.90;;;;;;5097634;28;20051;-87
2021/12/16 06:03:00;;;;;;;2.58;2.10;;;5.80;99.90;;;;;;5095907;28;20427;-87
2021/12/16 06:05:27;;;;;;;2.42;2.33;;;5.90;99.90;;;;;;5114003;28;20054;-87
2021/12/16 06:07:54;;;;;;;3.90;2.80;;;5.80;99.90;;;;;;5096104;28;20490;-87
2021/12/16 06:13:08;;;;;;;5.00;3.40;;;5.80;99.90;;;;;;5114593;28;20380;-87
2021/12/16 06:16:00;;;;;;;5.03;4.15;;;5.80;99.90;;;;;;5117876;28;20496;-86
2021/12/16 06:27:01;;;;;;;19.55;11.25;;;5.80;99.90;;;;;;5117280;28;20044;-86
2021/12/16 06:29:28;;;;;;;16.23;8.48;;;5.80;99.90;;;;;;5099785;28;20122;-87
2021/12/16 06:31:55;;;;;;;11.95;7.57;;;5.80;99.90;;;;;;5099401;28;20056;-86
2021/12/16 06:34:22;;;;;;;11.63;6.82;;;5.80;99.90;;;;;;5099830;28;20438;-87
2021/12/16 06:36:49;;;;;;;6.00;4.05;;;5.90;99.90;;;;;;5099961;28;20047;-87
2021/12/16 06:39:15;;;;;;;5.32;3.78;;;5.80;99.90;;;;;;5099601;28;20165;-87
2021/12/16 06:41:42;;;;;;;6.15;4.35;;;5.90;99.90;;;;;;5099578;28;20044;-86
2021/12/16 06:44:22;;;;;;;4.78;3.00;;;5.80;99.90;;;;;;5117469;28;20071;-87
2021/12/16 06:46:53;;;;;;;5.13;2.67;;;5.80;99.90;;;;;;5099485;28;20047;-87
2021/12/16 06:49:21;;;;;;;7.03;3.63;;;5.90;99.90;;;;;;5099505;28;20047;-85
2021/12/16 06:51:53;;;;;;;6.25;3.50;;;5.90;99.90;;;;;;5117106;28;20044;-87
2021/12/16 06:54:30;;;;;;;4.88;3.15;;;5.80;99.90;;;;;;5099104;28;20055;-87
2021/12/16 06:57:13;;;;;;;7.85;3.85;;;5.70;99.90;;;;;;5099098;28;20047;-86
2021/12/16 06:59:51;;;;;;;5.70;4.03;;;5.80;99.90;;;;;;5117038;28;20049;-87
2021/12/16 07:05:09;;;;;;;7.05;3.83;;;5.90;99.90;;;;;;5117350;28;20047;-87
2021/12/16 07:07:36;;;;;;;7.55;3.90;;;5.80;99.90;;;;;;5099073;28;20134;-87
2021/12/16 07:10:06;;;;;;;5.05;3.55;;;5.90;99.90;;;;;;5117175;28;20494;-87
2021/12/16 07:12:37;;;;;;;4.80;3.75;;;5.90;99.90;;;;;;5099173;28;20465;-87
2021/12/16 07:15:11;;;;;;;4.57;4.10;;;5.90;99.90;;;;;;5099562;28;20075;-87
2021/12/16 07:17:40;;;;;;;11.32;4.00;;;5.90;99.90;;;;;;5117829;28;20062;-86
2021/12/16 07:20:10;;;;;;;7.00;3.85;;;5.90;99.90;;;;;;5099039;28;20044;-86
2021/12/16 07:22:37;;;;;;;11.35;4.10;;;5.90;99.90;;;;;;5116758;28;20044;-86
2021/12/16 07:25:06;;;;;;;4.47;3.92;;;6.00;99.90;;;;;;5098569;28;20058;-86
2021/12/16 07:27:35;;;;;;;4.38;3.97;;;6.00;99.90;;;;;;5116680;28;20050;-86
2021/12/16 07:30:08;;;;;;;5.07;3.30;;;6.00;99.90;;;;;;5098273;28;20053;-86
2021/12/16 07:32:35;;;;;;;7.00;3.65;;;6.00;99.90;;;;;;5115608;28;20058;-86
2021/12/16 07:35:06;;;;;;;5.32;4.10;;;6.10;99.90;;;;;;5098450;28;20067;-86
2021/12/16 07:37:33;;;;;;;5.63;3.67;;;6.10;99.90;;;;;;5098414;28;20052;-86
2021/12/16 07:40:06;;;;;;;6.72;6.10;;;6.20;99.90;;;;;;5116183;28;20054;-86
2021/12/16 07:42:45;;;;;;;11.77;6.43;;;6.10;99.90;;;;;;5098263;28;20048;-85
2021/12/16 07:45:16;;;;;;;9.10;5.50;;;6.20;99.90;;;;;;5098167;28;20434;-85
2021/12/16 07:47:44;;;;;;;6.95;4.50;;;6.10;99.90;;;;;;5115938;28;20526;-86
2021/12/16 07:50:12;;;;;;;14.43;8.15;;;6.10;99.90;;;;;;5098169;28;20051;-86
2021/12/16 07:52:40;;;;;;;34.15;18.77;;;6.10;99.90;;;;;;5098023;28;20058;-86
2021/12/16 07:55:09;;;;;;;25.60;12.82;;;6.00;99.90;;;;;;5098021;28;20492;-86
2021/12/16 07:57:35;;;;;;;14.35;7.28;;;6.00;99.90;;;;;;5115927;28;20050;-86
2021/12/16 08:00:07;;;;;;;14.80;7.88;;;5.90;99.90;;;;;;5097955;28;20048;-86
2021/12/16 08:02:34;;;;;;;15.25;7.68;;;5.80;99.90;;;;;;5097866;28;20048;-86
2021/12/16 08:05:02;;;;;;;16.02;6.03;;;5.80;99.90;;;;;;5115680;28;20047;-86
2021/12/16 08:07:34;;;;;;;21.02;6.32;;;5.90;99.90;;;;;;5098571;28;20047;-86
2021/12/16 08:10:01;;;;;;;14.48;6.82;;;5.90;99.90;;;;;;5098121;28;20054;-86
2021/12/16 08:12:28;;;;;;;9.98;6.55;;;5.80;99.90;;;;;;5097542;28;20058;-86
2021/12/16 08:14:55;;;;;;;11.90;6.70;;;5.80;99.90;;;;;;5097569;28;20054;-86
2021/12/16 08:17:22;;;;;;;10.55;6.40;;;6.00;99.90;;;;;;5097770;28;20135;-87
2021/12/16 08:19:49;;;;;;;12.98;6.50;;;6.20;99.90;;;;;;5114777;28;20054;-86
2021/12/16 08:22:16;;;;;;;14.25;6.75;;;6.40;99.90;;;;;;5115450;28;20054;-86
2021/12/16 08:24:42;;;;;;;9.00;5.60;;;6.60;99.90;;;;;;5097384;28;20055;-85
2021/12/16 08:27:10;;;;;;;10.20;7.65;;;6.70;99.90;;;;;;5115281;28;20043;-86
2021/12/16 08:29:37;;;;;;;9.52;6.72;;;6.90;99.90;;;;;;5115820;28;20048;-86
2021/12/16 08:32:05;;;;;;;9.50;6.32;;;6.90;99.90;;;;;;5098960;28;20058;-86
2021/12/16 08:34:33;;;;;;;12.00;6.75;;;7.00;99.90;;;;;;5115216;28;20054;-86
2021/12/16 08:37:02;;;;;;;7.75;5.65;;;7.00;99.90;;;;;;5114634;28;20052;-86
2021/12/16 08:39:29;;;;;;;8.90;5.95;;;7.00;99.90;;;;;;5115279;28;20048;-86
2021/12/16 08:41:59;;;;;;;6.20;5.50;;;7.00;99.90;;;;;;5097324;28;20066;-86
2021/12/16 08:44:27;;;;;;;7.03;6.32;;;7.00;99.90;;;;;;5115449;28;20052;-86
2021/12/16 08:46:58;;;;;;;5.13;4.63;;;7.00;99.90;;;;;;5099813;28;20039;-85
2021/12/16 08:49:26;;;;;;;6.47;5.22;;;7.10;99.90;;;;;;5114896;28;20058;-86
2021/12/16 08:51:56;;;;;;;5.57;4.78;;;7.30;99.90;;;;;;5097083;28;20134;-86
2021/12/16 08:54:23;;;;;;;8.02;4.72;;;7.20;99.90;;;;;;5105414;28;20051;-87
2021/12/16 08:56:51;;;;;;;9.07;5.18;;;7.30;99.90;;;;;;5099510;28;20093;-86
2021/12/16 08:59:20;;;;;;;8.55;4.75;;;7.40;99.90;;;;;;5096682;28;20050;-85
2021/12/16 09:01:49;;;;;;;9.82;5.70;;;7.30;99.90;;;;;;5096798;28;20505;-86
2021/12/16 09:04:19;;;;;;;6.07;5.40;;;7.50;99.90;;;;;;5096595;28;20043;-85
2021/12/16 09:06:47;;;;;;;6.60;5.07;;;7.70;99.90;;;;;;5114100;28;20130;-86
2021/12/16 09:09:14;;;;;;;6.55;4.97;;;7.90;99.90;;;;;;5096605;28;20040;-86
2021/12/16 09:11:58;;;;;;;8.27;4.97;;;8.10;99.90;;;;;;5114562;28;20051;-86
2021/12/16 09:14:25;;;;;;;7.05;4.95;;;8.20;99.90;;;;;;5095169;28;20058;-86
2021/12/16 09:16:52;;;;;;;11.07;5.40;;;8.30;99.90;;;;;;5117033;27;20043;-86
2021/12/16 09:19:19;;;;;;;8.68;5.60;;;8.20;99.90;;;;;;5117243;27;20051;-87
2021/12/16 09:21:46;;;;;;;7.50;5.55;;;8.00;99.90;;;;;;5117034;27;20054;-86
2021/12/16 09:24:14;;;;;;;11.25;6.05;;;8.00;99.90;;;;;;5120072;27;20462;-86
2021/12/16 09:26:43;;;;;;;7.47;5.53;;;8.00;99.90;;;;;;5117408;27;20484;-86
2021/12/16 09:29:10;;;;;;;6.35;4.80;;;8.10;99.90;;;;;;5116678;27;20047;-86
2021/12/16 09:31:38;;;;;;;8.45;5.70;;;8.20;99.90;;;;;;5133150;27;20055;-86
2021/12/16 09:34:08;;;;;;;8.93;6.13;;;8.30;99.90;;;;;;5116700;27;20059;-87
2021/12/16 09:36:40;;;;;;;7.13;5.47;;;8.30;99.90;;;;;;5116791;27;20122;-86
2021/12/16 09:39:12;;;;;;;7.40;5.47;;;8.40;99.90;;;;;;5134663;27;20054;-85
2021/12/16 09:41:46;;;;;;;11.82;6.80;;;8.60;99.90;;;;;;5116792;27;20444;-86
2021/12/16 09:44:15;;;;;;;6.22;5.07;;;8.60;99.90;;;;;;5117235;27;20051;-86
2021/12/16 09:46:44;;;;;;;6.03;4.10;;;8.70;99.90;;;;;;5118329;27;20050;-86
2021/12/16 09:49:12;;;;;;;3.83;3.42;;;8.70;99.90;;;;;;5117220;27;20065;-87
2021/12/16 09:51:41;;;;;;;4.47;4.03;;;8.70;99.90;;;;;;5134878;27;20055;-86
2021/12/16 09:54:12;;;;;;;5.90;4.25;;;8.80;99.90;;;;;;5134631;27;20494;-86
2021/12/16 09:56:43;;;;;;;4.88;4.13;;;8.90;99.90;;;;;;5134964;27;20133;-87
2021/12/16 09:59:13;;;;;;;5.90;4.93;;;9.00;99.90;;;;;;5134761;27;20051;-86
2021/12/16 10:01:43;;;;;;;6.63;4.60;;;9.00;99.90;;;;;;5116826;28;20049;-87
2021/12/16 10:04:13;;;;;;;6.75;4.65;;;9.10;99.90;;;;;;5116628;28;20513;-87
2021/12/16 10:06:41;;;;;;;7.55;4.28;;;9.20;99.90;;;;;;5116538;28;20043;-86
2021/12/16 10:09:10;;;;;;;5.15;3.60;;;9.30;99.90;;;;;;5116348;28;20043;-86
2021/12/16 10:11:43;;;;;;;15.10;5.00;;;9.30;99.90;;;;;;5116697;28;20051;-86
2021/12/16 10:19:31;;;;;;;4.53;4.05;;;9.50;99.90;;;;;;5134474;28;20047;-86
2021/12/16 10:22:18;;;;;;;11.43;6.22;;;9.60;99.90;;;;;;5116826;28;20096;-86
2021/12/16 10:24:48;;;;;;;7.47;4.85;;;9.70;99.90;;;;;;5116569;28;20050;-87
2021/12/16 10:27:22;;;;;;;6.40;4.90;;;9.80;99.90;;;;;;5116470;28;20055;-86
2021/12/16 10:29:57;;;;;;;14.45;6.63;;;9.80;99.90;;;;;;5135154;28;20065;-86
2021/12/16 10:32:46;;;;;;;10.80;5.80;;;9.90;99.90;;;;;;5116235;28;20062;-86
2021/12/16 10:35:20;;;;;;;11.93;4.57;;;10.30;99.90;;;;;;5134331;28;20410;-85
2021/12/16 10:37:53;;;;;;;8.98;3.90;;;10.60;99.90;;;;;;5116340;28;20133;-86
2021/12/16 10:40:28;;;;;;;12.30;4.93;;;10.80;99.90;;;;;;5134635;28;20051;-86
2021/12/16 10:42:59;;;;;;;10.73;4.55;;;10.90;99.90;;;;;;5116190;28;20047;-86
2021/12/16 10:45:32;;;;;;;5.55;3.95;;;11.00;99.90;;;;;;5116489;28;20051;-85
2021/12/16 10:48:18;;;;;;;9.23;3.95;;;11.00;99.90;;;;;;5116324;28;20107;-86
2021/12/16 10:50:58;;;;;;;9.30;4.25;;;10.80;99.90;;;;;;5116419;28;20504;-86
2021/12/16 10:53:53;;;;;;;11.65;4.07;;;10.70;99.90;;;;;;5134141;28;20058;-86
2021/12/16 10:56:37;;;;;;;14.07;4.80;;;10.70;99.90;;;;;;5134172;28;20065;-85
2021/12/16 10:59:22;;;;;;;7.60;4.28;;;10.70;99.90;;;;;;5135568;27;20473;-85
2021/12/16 11:01:56;;;;;;;6.65;3.80;;;10.50;99.90;;;;;;5132047;27;20047;-85
2021/12/16 11:04:26;;;;;;;9.75;4.65;;;10.50;99.90;;;;;;5138774;27;20051;-86
2021/12/16 11:07:14;;;;;;;7.60;4.18;;;10.50;99.90;;;;;;5119849;27;20059;-86
2021/12/16 11:09:45;;;;;;;10.45;5.03;;;10.40;99.90;;;;;;5120108;27;20044;-86
2021/12/16 11:12:37;;;;;;;9.32;4.85;;;10.30;99.90;;;;;;5138048;27;20418;-86
2021/12/16 11:15:25;;;;;;;5.20;4.60;;;10.30;99.90;;;;;;5120076;27;20464;-86
2021/12/16 11:18:04;;;;;;;10.82;4.55;;;10.00;99.90;;;;;;5137839;27;20051;-86
2021/12/16 11:20:37;;;;;;;10.02;4.40;;;10.10;99.90;;;;;;5119868;27;20051;-86
2021/12/16 11:23:15;;;;;;;14.97;5.40;;;10.00;99.90;;;;;;5137732;27;20055;-86
2021/12/16 11:25:46;;;;;;;13.18;5.22;;;10.00;99.90;;;;;;5119527;27;20311;-86
2021/12/16 11:28:25;;;;;;;18.13;5.53;;;10.00;99.90;;;;;;5137683;27;20054;-86
2021/12/16 11:31:10;;;;;;;17.75;5.78;;;9.90;99.90;;;;;;5137502;27;20047;-86
2021/12/16 11:33:44;;;;;;;9.38;4.70;;;9.90;99.90;;;;;;5119349;27;20054;-85
2021/12/16 11:36:15;;;;;;;7.95;5.05;;;9.80;99.90;;;;;;5119404;27;20478;-86
2021/12/16 11:38:49;;;;;;;14.48;4.88;;;9.90;99.90;;;;;;5119245;27;20156;-86
2021/12/16 11:41:39;;;;;;;9.32;5.38;;;9.90;99.90;;;;;;5137271;27;20051;-86
2021/12/16 11:44:18;;;;;;;15.48;10.55;;;9.90;99.90;;;;;;5119206;27;20468;-86
2021/12/16 11:47:07;;;;;;;14.85;11.00;;;9.90;99.90;;;;;;5119620;27;20483;-86
2021/12/16 11:49:52;;;;;;;7.25;4.95;;;9.90;99.90;;;;;;5119038;27;20047;-85
2021/12/16 11:52:23;;;;;;;7.70;4.60;;;9.90;99.90;;;;;;5119003;27;20053;-85
2021/12/16 11:55:05;;;;;;;6.45;4.88;;;9.70;99.90;;;;;;5137024;27;20047;-86
2021/12/16 11:57:34;;;;;;;5.10;4.53;;;9.60;99.90;;;;;;5119271;27;20047;-86
2021/12/16 12:00:16;;;;;;;10.13;4.72;;;9.50;99.90;;;;;;5136981;27;20410;-85
2021/12/16 12:02:49;;;;;;;6.93;4.80;;;9.40;99.90;;;;;;5120271;27;20089;-85
2021/12/16 12:05:32;;;;;;;11.07;5.78;;;9.30;99.90;;;;;;5119502;27;20078;-86
2021/12/16 12:08:01;;;;;;;12.18;5.85;;;8.90;99.90;;;;;;5119020;27;20051;-86
2021/12/16 12:10:40;;;;;;;7.97;4.82;;;8.80;99.90;;;;;;5117816;28;20051;-86
2021/12/16 12:13:10;;;;;;;11.23;6.35;;;8.70;99.90;;;;;;5118723;27;20497;-86
2021/12/16 12:16:00;;;;;;;10.98;5.65;;;8.70;99.90;;;;;;5146477;27;20054;-86
2021/12/16 12:18:42;;;;;;;10.30;5.75;;;8.50;99.90;;;;;;5120204;27;20047;-86
2021/12/16 12:21:22;;;;;;;10.10;6.10;;;8.60;99.90;;;;;;5118494;27;20045;-86
2021/12/16 12:23:54;;;;;;;8.02;5.90;;;8.70;99.90;;;;;;5118401;27;20065;-86
2021/12/16 12:26:22;;;;;;;8.02;5.80;;;8.80;99.90;;;;;;5136875;27;20050;-85
2021/12/16 12:29:04;;;;;;;9.20;6.15;;;8.90;99.90;;;;;;5118327;27;20130;-85
2021/12/16 12:31:35;;;;;;;9.88;6.07;;;8.90;99.90;;;;;;5114551;28;20046;-84
2021/12/16 12:34:02;;;;;;;9.43;5.75;;;9.00;99.90;;;;;;5114483;28;20048;-85
2021/12/16 12:36:29;;;;;;;11.80;7.07;;;9.00;99.90;;;;;;5114509;28;20044;-85
2021/12/16 12:38:57;;;;;;;9.48;5.40;;;9.10;99.90;;;;;;5114279;28;20047;-84
2021/12/16 12:41:24;;;;;;;8.45;5.97;;;9.00;99.90;;;;;;5115233;28;20079;-85
2021/12/16 12:43:52;;;;;;;11.70;6.30;;;9.00;99.90;;;;;;5114014;28;20500;-85
2021/12/16 12:46:19;;;;;;;10.55;6.25;;;9.10;99.90;;;;;;5114840;28;20491;-84
2021/12/16 12:48:47;;;;;;;15.57;7.35;;;9.10;99.90;;;;;;5113781;28;20051;-84
2021/12/16 12:51:15;;;;;;;15.70;6.85;;;9.00;99.90;;;;;;5114071;28;20122;-84
2021/12/16 12:53:52;;;;;;;17.98;7.28;;;9.00;99.90;;;;;;5113556;28;20058;-84
2021/12/16 12:56:30;;;;;;;15.35;7.97;;;9.00;99.90;;;;;;5114989;28;20147;-84
2021/12/16 12:59:11;;;;;;;14.27;7.70;;;8.70;99.90;;;;;;5113828;28;20410;-84
2021/12/16 13:01:51;;;;;;;11.38;7.50;;;8.70;99.90;;;;;;5113827;28;20055;-85
2021/12/16 13:04:32;;;;;;;12.18;6.88;;;8.50;99.90;;;;;;5113840;28;20407;-84
2021/12/16 13:07:10;;;;;;;12.95;7.80;;;8.50;99.90;;;;;;5113771;28;20509;-84
2021/12/16 13:09:45;;;;;;;15.23;9.35;;;8.40;99.90;;;;;;5114788;28;20392;-85
2021/12/16 13:12:39;;;;;;;15.20;8.80;;;8.40;99.90;;;;;;5114688;28;20126;-84
2021/12/16 13:15:38;;;;;;;16.25;9.32;;;8.50;99.90;;;;;;5113495;28;20563;-85
2021/12/16 13:24:29;;;;;;;13.15;7.97;;;8.50;99.90;;;;;;5114250;28;20048;-84
2021/12/16 13:27:09;;;;;;;9.70;7.68;;;8.50;99.90;;;;;;5114807;28;20418;-85
2021/12/16 13:29:41;;;;;;;13.18;8.77;;;8.50;99.90;;;;;;5120543;28;20111;-84
2021/12/16 13:32:16;;;;;;;12.13;8.30;;;8.60;99.90;;;;;;5135894;27;20051;-85
2021/12/16 13:35:12;;;;;;;20.40;11.40;;;8.60;99.90;;;;;;5116712;27;20058;-85
2021/12/16 13:37:43;;;;;;;9.30;6.93;;;8.60;99.90;;;;;;5134955;27;20050;-85
2021/12/16 13:40:30;;;;;;;11.98;7.78;;;8.60;99.90;;;;;;5116772;27;20233;-85
2021/12/16 13:43:20;;;;;;;7.40;5.13;;;8.60;99.90;;;;;;5116535;27;20070;-85
2021/12/16 14:03:07;;;;;;;18.52;13.25;;;8.90;99.90;;;;;;5135046;27;20103;-85
2021/12/16 14:06:27;;;;;;;20.02;11.05;;;8.80;99.90;;;;;;5117045;27;20047;-85
2021/12/16 14:08:31;;;;;;;11.90;7.07;;;8.80;99.90;;;;;;5121056;27;20422;-85
2021/12/16 14:11:04;;;;;;;11.02;7.25;;;8.80;99.90;;;;;;5134985;28;20497;-86
2021/12/16 14:17:28;;;;;;;10.10;7.78;;;8.70;99.90;;;;;;5134583;28;20091;-85
2021/12/16 14:25:34;;;;;;;16.05;9.57;;;8.50;99.90;;;;;;5134316;28;20047;-85
2021/12/16 14:42:11;;;;;;;21.92;15.10;;;8.50;99.90;;;;;;5139106;27;20069;-85
2021/12/16 14:47:56;;;;;;;27.20;14.50;;;8.30;99.90;;;;;;5137977;27;20475;-84
2021/12/16 14:50:32;;;;;;;24.35;13.52;;;8.20;99.90;;;;;;5138294;27;20047;-85
2021/12/16 14:52:59;;;;;;;25.40;13.43;;;8.10;99.90;;;;;;5120020;27;20047;-84
2021/12/16 14:55:27;;;;;;;22.48;12.55;;;8.10;99.90;;;;;;5119747;27;20475;-85
2021/12/16 14:57:57;;;;;;;17.30;12.15;;;8.10;99.90;;;;;;5119716;27;20577;-86
2021/12/16 15:00:41;;;;;;;20.75;13.82;;;8.20;99.90;;;;;;5120538;27;20506;-85
2021/12/16 15:03:15;;;;;;;24.13;14.40;;;8.10;99.90;;;;;;5119943;27;20085;-85
2021/12/16 15:05:52;;;;;;;23.55;14.40;;;8.00;99.90;;;;;;5119825;27;20566;-85
2021/12/16 15:08:37;;;;;;;21.98;14.48;;;8.00;99.90;;;;;;5119751;27;20142;-85
2021/12/16 15:11:08;;;;;;;20.63;14.23;;;8.10;99.90;;;;;;5119719;27;20058;-85
2021/12/16 15:13:42;;;;;;;20.70;13.63;;;8.10;99.90;;;;;;5119437;27;20126;-85
2021/12/16 15:35:36;;;;;;;42.53;27.17;;;8.00;99.90;;;;;;5137567;27;20054;-85
2021/12/16 15:45:10;;;;;;;28.63;18.02;;;7.90;99.90;;;;;;5136302;27;20047;-86
2021/12/16 15:47:43;;;;;;;21.80;13.75;;;7.90;99.90;;;;;;5136808;27;20050;-85
2021/12/16 15:50:12;;;;;;;18.45;12.50;;;7.90;99.90;;;;;;5137169;27;20134;-86
2021/12/16 15:52:42;;;;;;;26.10;14.65;;;7.90;99.90;;;;;;5119026;27;20111;-86
2021/12/16 15:55:15;;;;;;;29.77;17.83;;;7.90;99.90;;;;;;5136857;27;20526;-86
2021/12/16 15:57:42;;;;;;;24.77;15.80;;;7.90;99.90;;;;;;5120194;27;20043;-86
2021/12/16 16:00:17;;;;;;;29.15;18.23;;;7.90;99.90;;;;;;5134616;27;20406;-86
2021/12/16 16:02:44;;;;;;;27.77;17.73;;;7.90;99.90;;;;;;5119051;27;20047;-85
2021/12/16 16:05:11;;;;;;;24.02;16.35;;;7.90;99.90;;;;;;5136713;27;20055;-85
2021/12/16 16:07:39;;;;;;;21.92;15.88;;;7.90;99.90;;;;;;5118486;27;20043;-85
2021/12/16 16:10:09;;;;;;;29.83;16.92;;;7.90;99.90;;;;;;5118672;27;20054;-85
2021/12/16 16:12:36;;;;;;;24.00;16.00;;;7.90;99.90;;;;;;5136559;27;20133;-86
2021/12/16 16:15:16;;;;;;;28.90;16.92;;;7.90;99.90;;;;;;5118101;27;20058;-85
2021/12/16 16:18:00;;;;;;;26.10;15.65;;;7.90;99.90;;;;;;5118431;27;20040;-85
2021/12/16 16:20:31;;;;;;;23.67;15.07;;;8.00;99.90;;;;;;5118424;27;20046;-85
2021/12/16 16:23:04;;;;;;;27.10;17.40;;;8.00;99.90;;;;;;5118230;27;20416;-85
2021/12/16 16:25:31;;;;;;;20.67;15.00;;;7.90;99.90;;;;;;5118200;27;20051;-85
2021/12/16 16:28:01;;;;;;;30.88;16.73;;;7.90;99.90;;;;;;5118273;27;20131;-85
2021/12/16 16:30:29;;;;;;;28.45;16.88;;;7.90;99.90;;;;;;5117900;27;20138;-86
2021/12/16 16:33:04;;;;;;;22.88;15.50;;;7.90;99.90;;;;;;5136247;27;20078;-85
2021/12/16 16:35:34;;;;;;;21.27;14.27;;;7.90;99.90;;;;;;5118030;27;20063;-85
2021/12/16 16:38:20;;;;;;;24.08;14.55;;;7.90;99.90;;;;;;5117938;27;20049;-85
2021/12/16 16:40:50;;;;;;;22.13;12.80;;;7.90;99.90;;;;;;5136087;27;20058;-85
2021/12/16 16:43:30;;;;;;;21.15;11.45;;;7.90;99.90;;;;;;5135701;27;20088;-85
2021/12/16 16:46:03;;;;;;;17.80;10.02;;;7.90;99.90;;;;;;5135769;27;20051;-85
2021/12/16 16:51:29;;;;;;;18.25;9.68;;;7.90;99.90;;;;;;5135966;27;20100;-85
2021/12/16 16:54:04;;;;;;;19.73;10.90;;;7.80;99.90;;;;;;5117867;27;20053;-85
2021/12/16 16:56:46;;;;;;;35.47;20.63;;;7.80;99.90;;;;;;5117248;27;20483;-85
2021/12/16 16:59:19;;;;;;;33.85;19.77;;;7.80;99.90;;;;;;5118609;27;20043;-85
2021/12/16 17:01:46;;;;;;;38.28;21.15;;;7.80;99.90;;;;;;5117709;27;20057;-85
2021/12/16 17:04:15;;;;;;;34.70;18.23;;;7.70;99.90;;;;;;5117381;27;20137;-85
2021/12/16 17:06:46;;;;;;;33.08;16.58;;;7.70;99.90;;;;;;5118182;27;20046;-85
2021/12/16 17:09:14;;;;;;;18.00;11.73;;;7.70;99.90;;;;;;5117752;27;20047;-85
2021/12/16 17:11:44;;;;;;;18.70;11.90;;;7.70;99.90;;;;;;5133604;27;20475;-85